VIV005 MMAA-MMMX
Flight info
| Callsign | VIV005 |
|---|---|
| Flight time | N/A |
| Altitude | 32000 |
| Route | ALNU1B/28 ALNUS UT117 ESPOS ESPOS4B |
| Aircraft | A320/M-SDE3FGHIRWY/LB1 |
Departure
| Time | 2026-04-24 02:19 |
|---|---|
| Airport | General Juan N. Álvarez International Airport (MMAA) |
Arrival
| Time | N/A |
|---|---|
| Airport | Mexico City Benito Juárez International Airport (MMMX) |
| Time | Latitude | Longitude | Altitude | Speed | Heading |
|---|---|---|---|---|---|
| 2026-04-24 02:00 | 16.76127 | -99.75489 | 17 ft | 0 kts | 18° |
| 2026-04-24 02:10 | 16.76118 | -99.75492 | 17 ft | 4 kts | 19° |
| 2026-04-24 02:10 | 16.76093 | -99.75502 | 19 ft | 4 kts | 23° |
| 2026-04-24 02:10 | 16.76068 | -99.75514 | 20 ft | 4 kts | 29° |
| 2026-04-24 02:10 | 16.76046 | -99.75529 | 20 ft | 4 kts | 46° |
| 2026-04-24 02:11 | 16.76034 | -99.75550 | 21 ft | 3 kts | 102° |
| 2026-04-24 02:11 | 16.76037 | -99.75558 | 20 ft | 0 kts | 109° |
| 2026-04-24 02:13 | 16.76036 | -99.75557 | 20 ft | 1 kts | 109° |
| 2026-04-24 02:13 | 16.76031 | -99.75542 | 20 ft | 4 kts | 109° |
| 2026-04-24 02:13 | 16.76017 | -99.75499 | 17 ft | 7 kts | 107° |
| 2026-04-24 02:14 | 16.76000 | -99.75441 | 19 ft | 9 kts | 109° |
| 2026-04-24 02:14 | 16.75973 | -99.75374 | 17 ft | 11 kts | 132° |
| 2026-04-24 02:14 | 16.75904 | -99.75334 | 17 ft | 12 kts | 138° |
| 2026-04-24 02:14 | 16.75868 | -99.75249 | 17 ft | 14 kts | 107° |
| 2026-04-24 02:15 | 16.75837 | -99.75149 | 19 ft | 15 kts | 108° |
| 2026-04-24 02:15 | 16.75802 | -99.75040 | 17 ft | 17 kts | 108° |
| 2026-04-24 02:15 | 16.75765 | -99.74917 | 17 ft | 19 kts | 107° |
| 2026-04-24 02:15 | 16.75721 | -99.74781 | 17 ft | 21 kts | 108° |
| 2026-04-24 02:16 | 16.75675 | -99.74632 | 17 ft | 22 kts | 108° |
| 2026-04-24 02:16 | 16.75625 | -99.74472 | 19 ft | 24 kts | 108° |
| 2026-04-24 02:16 | 16.75571 | -99.74300 | 19 ft | 26 kts | 108° |
| 2026-04-24 02:16 | 16.75514 | -99.74117 | 17 ft | 27 kts | 109° |
| 2026-04-24 02:17 | 16.75452 | -99.73921 | 18 ft | 29 kts | 108° |
| 2026-04-24 02:17 | 16.75389 | -99.73720 | 17 ft | 25 kts | 108° |
| 2026-04-24 02:17 | 16.75333 | -99.73542 | 18 ft | 27 kts | 108° |
| 2026-04-24 02:17 | 16.75280 | -99.73372 | 17 ft | 21 kts | 110° |
| 2026-04-24 02:18 | 16.75162 | -99.73343 | 18 ft | 20 kts | 199° |
| 2026-04-24 02:18 | 16.75091 | -99.73403 | 19 ft | 7 kts | 279° |
| 2026-04-24 02:18 | 16.75094 | -99.73411 | 18 ft | 2 kts | 287° |
| 2026-04-24 02:18 | 16.75126 | -99.73515 | 18 ft | 44 kts | 288° |
| 2026-04-24 02:19 | 16.75290 | -99.74036 | 18 ft | 104 kts | 288° |
| 2026-04-24 02:19 | 16.75563 | -99.74909 | 20 ft | 147 kts | 288° |
| 2026-04-24 02:19 | 16.75899 | -99.75983 | 425 ft | 155 kts | 284° |
| 2026-04-24 02:19 | 16.76190 | -99.77089 | 949 ft | 163 kts | 282° |
| 2026-04-24 02:20 | 16.76405 | -99.78281 | 1475 ft | 172 kts | 279° |
| 2026-04-24 02:20 | 16.76589 | -99.79556 | 1859 ft | 188 kts | 281° |
| 2026-04-24 02:20 | 16.76878 | -99.80924 | 2348 ft | 199 kts | 284° |
| 2026-04-24 02:20 | 16.77274 | -99.82357 | 2817 ft | 213 kts | 289° |
| 2026-04-24 02:21 | 16.77818 | -99.83849 | 3341 ft | 228 kts | 291° |
| 2026-04-24 02:21 | 16.78464 | -99.85456 | 3762 ft | 250 kts | 292° |
| 2026-04-24 02:21 | 16.79345 | -99.87056 | 4414 ft | 262 kts | 311° |
| 2026-04-24 02:21 | 16.80844 | -99.88173 | 5132 ft | 271 kts | 335° |
| 2026-04-24 02:22 | 16.82681 | -99.88736 | 5759 ft | 279 kts | 345° |
| 2026-04-24 02:22 | 16.84536 | -99.89240 | 5958 ft | 280 kts | 345° |
| 2026-04-24 02:22 | 16.86417 | -99.89760 | 6009 ft | 280 kts | 344° |
| 2026-04-24 02:22 | 16.88294 | -99.90284 | 6024 ft | 279 kts | 344° |
| 2026-04-24 02:23 | 16.90183 | -99.90810 | 6454 ft | 282 kts | 345° |
| 2026-04-24 02:23 | 16.92085 | -99.91338 | 7277 ft | 283 kts | 345° |
| 2026-04-24 02:23 | 16.93999 | -99.91821 | 8076 ft | 285 kts | 352° |
| 2026-04-24 02:23 | 16.95983 | -99.91781 | 8827 ft | 288 kts | 11° |
| 2026-04-24 02:24 | 16.97874 | -99.91081 | 9563 ft | 291 kts | 28° |
| 2026-04-24 02:24 | 16.99620 | -99.89990 | 10243 ft | 295 kts | 31° |
| 2026-04-24 02:24 | 17.01439 | -99.88839 | 10443 ft | 317 kts | 30° |
| 2026-04-24 02:24 | 17.03362 | -99.87623 | 10561 ft | 338 kts | 31° |
| 2026-04-24 02:25 | 17.05432 | -99.86314 | 10736 ft | 355 kts | 30° |
| 2026-04-24 02:25 | 17.07565 | -99.84963 | 11186 ft | 362 kts | 30° |
| 2026-04-24 02:25 | 17.09730 | -99.83597 | 11756 ft | 365 kts | 30° |
| 2026-04-24 02:25 | 17.11918 | -99.82229 | 12318 ft | 368 kts | 29° |
| 2026-04-24 02:26 | 17.14291 | -99.81240 | 12851 ft | 370 kts | 12° |
| 2026-04-24 02:26 | 17.16853 | -99.80910 | 13408 ft | 373 kts | 5° |
| 2026-04-24 02:26 | 17.19439 | -99.80670 | 14009 ft | 374 kts | 5° |
| 2026-04-24 02:26 | 17.22039 | -99.80444 | 14484 ft | 377 kts | 4° |
| 2026-04-24 02:27 | 17.24666 | -99.80222 | 14988 ft | 379 kts | 4° |
| 2026-04-24 02:27 | 17.27305 | -99.80002 | 15447 ft | 382 kts | 4° |
| 2026-04-24 02:27 | 17.29963 | -99.79777 | 15941 ft | 384 kts | 4° |
| 2026-04-24 02:27 | 17.32602 | -99.79549 | 16419 ft | 387 kts | 5° |
| 2026-04-24 02:28 | 17.35297 | -99.79313 | 16911 ft | 390 kts | 5° |
| 2026-04-24 02:28 | 17.38011 | -99.79076 | 17403 ft | 393 kts | 5° |
| 2026-04-24 02:28 | 17.40745 | -99.78836 | 17902 ft | 396 kts | 4° |
| 2026-04-24 02:28 | 17.43500 | -99.78593 | 18353 ft | 398 kts | 4° |
| 2026-04-24 02:29 | 17.46271 | -99.78347 | 18788 ft | 401 kts | 5° |
| 2026-04-24 02:29 | 17.49060 | -99.78098 | 19201 ft | 404 kts | 4° |
| 2026-04-24 02:29 | 17.51870 | -99.77851 | 19605 ft | 406 kts | 5° |
| 2026-04-24 02:29 | 17.54696 | -99.77605 | 19876 ft | 408 kts | 4° |
| 2026-04-24 02:30 | 17.57527 | -99.77358 | 19946 ft | 409 kts | 4° |
| 2026-04-24 02:30 | 17.60325 | -99.77198 | 19957 ft | 408 kts | 359° |
| 2026-04-24 02:30 | 17.63168 | -99.77261 | 20031 ft | 411 kts | 359° |
| 2026-04-24 02:30 | 17.66028 | -99.77323 | 20435 ft | 412 kts | 358° |
| 2026-04-24 02:31 | 17.68905 | -99.77384 | 20854 ft | 415 kts | 358° |
| 2026-04-24 02:31 | 17.71798 | -99.77445 | 21244 ft | 417 kts | 358° |
| 2026-04-24 02:31 | 17.74706 | -99.77506 | 21641 ft | 419 kts | 358° |
| 2026-04-24 02:31 | 17.77627 | -99.77567 | 22023 ft | 421 kts | 358° |
| 2026-04-24 02:32 | 17.80562 | -99.77653 | 22381 ft | 423 kts | 357° |
| 2026-04-24 02:32 | 17.83514 | -99.77793 | 22762 ft | 425 kts | 356° |
| 2026-04-24 02:32 | 17.86472 | -99.77969 | 23141 ft | 427 kts | 356° |
| 2026-04-24 02:32 | 17.89444 | -99.78157 | 23508 ft | 429 kts | 356° |
| 2026-04-24 02:33 | 17.92389 | -99.78339 | 23773 ft | 431 kts | 356° |
| 2026-04-24 02:33 | 17.95392 | -99.78514 | 24074 ft | 432 kts | 356° |
| 2026-04-24 02:33 | 17.98401 | -99.78680 | 24366 ft | 434 kts | 356° |
| 2026-04-24 02:33 | 18.01427 | -99.78839 | 24666 ft | 436 kts | 356° |
| 2026-04-24 02:34 | 18.04460 | -99.78995 | 24967 ft | 438 kts | 356° |
| 2026-04-24 02:34 | 18.07508 | -99.79153 | 25257 ft | 439 kts | 356° |
| 2026-04-24 02:34 | 18.10572 | -99.79315 | 25549 ft | 441 kts | 356° |
| 2026-04-24 02:34 | 18.13638 | -99.79479 | 25848 ft | 443 kts | 356° |
| 2026-04-24 02:35 | 18.16719 | -99.79644 | 26147 ft | 444 kts | 356° |
| 2026-04-24 02:35 | 18.19772 | -99.79807 | 26430 ft | 446 kts | 356° |
| 2026-04-24 02:35 | 18.22883 | -99.79974 | 26704 ft | 448 kts | 356° |
| 2026-04-24 02:35 | 18.26000 | -99.80142 | 26993 ft | 450 kts | 356° |
| 2026-04-24 02:36 | 18.29136 | -99.80312 | 27292 ft | 451 kts | 356° |
| 2026-04-24 02:36 | 18.32263 | -99.80483 | 27728 ft | 450 kts | 356° |
| 2026-04-24 02:36 | 18.35384 | -99.80654 | 28178 ft | 448 kts | 356° |
| 2026-04-24 02:36 | 18.38492 | -99.80822 | 28631 ft | 446 kts | 356° |
| 2026-04-24 02:37 | 18.41587 | -99.80990 | 29092 ft | 445 kts | 356° |
| 2026-04-24 02:37 | 18.44674 | -99.81158 | 29542 ft | 443 kts | 356° |
| 2026-04-24 02:37 | 18.47753 | -99.81322 | 29978 ft | 442 kts | 356° |
| 2026-04-24 02:37 | 18.50780 | -99.81481 | 30350 ft | 441 kts | 356° |
| 2026-04-24 02:38 | 18.53843 | -99.81641 | 30743 ft | 440 kts | 356° |
| 2026-04-24 02:38 | 18.56899 | -99.81801 | 31136 ft | 439 kts | 356° |
| 2026-04-24 02:38 | 18.59951 | -99.81960 | 31552 ft | 438 kts | 356° |
| 2026-04-24 02:38 | 18.62998 | -99.82116 | 31829 ft | 439 kts | 357° |
| 2026-04-24 02:39 | 18.69050 | -99.81185 | 31897 ft | 444 kts | 18° |
| 2026-04-24 02:39 | 18.71834 | -99.79780 | 31904 ft | 446 kts | 31° |
| 2026-04-24 02:39 | 18.74256 | -99.77728 | 31930 ft | 449 kts | 44° |
| 2026-04-24 02:40 | 18.76184 | -99.75126 | 31930 ft | 453 kts | 57° |
| 2026-04-24 02:40 | 18.77583 | -99.72129 | 31930 ft | 456 kts | 64° |
| 2026-04-24 02:40 | 18.80161 | -99.66008 | 31926 ft | 457 kts | 63° |
| 2026-04-24 02:41 | 18.82740 | -99.59924 | 31928 ft | 457 kts | 63° |
| 2026-04-24 02:41 | 18.85340 | -99.53799 | 31925 ft | 457 kts | 63° |
| 2026-04-24 02:42 | 18.87940 | -99.47672 | 31957 ft | 458 kts | 63° |
| 2026-04-24 02:42 | 18.90536 | -99.41526 | 31940 ft | 458 kts | 63° |
| 2026-04-24 02:43 | 18.93132 | -99.35357 | 32047 ft | 464 kts | 63° |
| 2026-04-24 02:43 | 18.95736 | -99.29038 | 32038 ft | 472 kts | 64° |
| 2026-04-24 02:44 | 18.97038 | -99.25845 | 31595 ft | 474 kts | 64° |
| 2026-04-24 02:44 | 18.98324 | -99.22690 | 31047 ft | 474 kts | 64° |
| 2026-04-24 02:44 | 18.99628 | -99.19482 | 30409 ft | 476 kts | 64° |
| 2026-04-24 02:44 | 19.00936 | -99.16264 | 29875 ft | 477 kts | 64° |
| 2026-04-24 02:45 | 19.02252 | -99.13036 | 29254 ft | 479 kts | 64° |
| 2026-04-24 02:45 | 19.03574 | -99.09800 | 28693 ft | 481 kts | 64° |
| 2026-04-24 02:45 | 19.04901 | -99.06555 | 28115 ft | 481 kts | 64° |
| 2026-04-24 02:45 | 19.06231 | -99.03305 | 27534 ft | 483 kts | 64° |
| 2026-04-24 02:46 | 19.07563 | -99.00043 | 26853 ft | 483 kts | 64° |
| 2026-04-24 02:46 | 19.08887 | -98.96794 | 26159 ft | 479 kts | 64° |
| 2026-04-24 02:46 | 19.10197 | -98.93574 | 25505 ft | 475 kts | 64° |
| 2026-04-24 02:46 | 19.11497 | -98.90374 | 24842 ft | 471 kts | 65° |
| 2026-04-24 02:47 | 19.12769 | -98.87246 | 24211 ft | 467 kts | 65° |
| 2026-04-24 02:47 | 19.14175 | -98.84172 | 23580 ft | 462 kts | 58° |
| 2026-04-24 02:47 | 19.15938 | -98.81372 | 23129 ft | 455 kts | 53° |
| 2026-04-24 02:47 | 19.17757 | -98.78633 | 22958 ft | 454 kts | 53° |
| 2026-04-24 02:48 | 19.19558 | -98.75888 | 23034 ft | 455 kts | 53° |
| 2026-04-24 02:48 | 19.21353 | -98.73133 | 23028 ft | 455 kts | 53° |
| 2026-04-24 02:48 | 19.23143 | -98.70375 | 23032 ft | 454 kts | 53° |
| 2026-04-24 02:48 | 19.24932 | -98.67620 | 23014 ft | 454 kts | 53° |
| 2026-04-24 02:49 | 19.26722 | -98.64869 | 22484 ft | 452 kts | 53° |
| 2026-04-24 02:49 | 19.28504 | -98.62143 | 21942 ft | 448 kts | 53° |
| 2026-04-24 02:49 | 19.30272 | -98.59447 | 21399 ft | 443 kts | 53° |
| 2026-04-24 02:49 | 19.32008 | -98.56796 | 20866 ft | 435 kts | 53° |
| 2026-04-24 02:50 | 19.33696 | -98.54216 | 20359 ft | 429 kts | 53° |
| 2026-04-24 02:50 | 19.35380 | -98.51637 | 19856 ft | 423 kts | 53° |
| 2026-04-24 02:50 | 19.37043 | -98.49087 | 19350 ft | 418 kts | 54° |
| 2026-04-24 02:50 | 19.38693 | -98.46573 | 18856 ft | 414 kts | 52° |
| 2026-04-24 02:51 | 19.40665 | -98.44397 | 18374 ft | 407 kts | 36° |
| 2026-04-24 02:51 | 19.43077 | -98.42900 | 17887 ft | 400 kts | 20° |
| 2026-04-24 02:51 | 19.45734 | -98.42160 | 17306 ft | 393 kts | 5° |
| 2026-04-24 02:51 | 19.48449 | -98.42180 | 16728 ft | 388 kts | 352° |
| 2026-04-24 02:52 | 19.51103 | -98.42599 | 16176 ft | 384 kts | 351° |
| 2026-04-24 02:52 | 19.53730 | -98.43018 | 15639 ft | 380 kts | 351° |
| 2026-04-24 02:52 | 19.56331 | -98.43432 | 15127 ft | 376 kts | 351° |
| 2026-04-24 02:52 | 19.58892 | -98.43841 | 14854 ft | 366 kts | 351° |
| 2026-04-24 02:53 | 19.61314 | -98.44288 | 14771 ft | 349 kts | 345° |
| 2026-04-24 02:53 | 19.63613 | -98.44868 | 14786 ft | 331 kts | 344° |
| 2026-04-24 02:53 | 19.65761 | -98.45574 | 14792 ft | 322 kts | 332° |
| 2026-04-24 02:53 | 19.67606 | -98.47033 | 14796 ft | 343 kts | 315° |
| 2026-04-24 02:54 | 19.69332 | -98.48890 | 14791 ft | 364 kts | 313° |
| 2026-04-24 02:54 | 19.71133 | -98.50877 | 14785 ft | 379 kts | 313° |
| 2026-04-24 02:54 | 19.72969 | -98.52909 | 14784 ft | 383 kts | 313° |
| 2026-04-24 02:54 | 19.74804 | -98.54965 | 14567 ft | 383 kts | 311° |
| 2026-04-24 02:55 | 19.76212 | -98.57333 | 14222 ft | 380 kts | 292° |
| 2026-04-24 02:55 | 19.76769 | -98.60061 | 13885 ft | 380 kts | 273° |
| 2026-04-24 02:55 | 19.76549 | -98.62864 | 13508 ft | 381 kts | 264° |
| 2026-04-24 02:55 | 19.76188 | -98.65653 | 13137 ft | 381 kts | 263° |
| 2026-04-24 02:56 | 19.75835 | -98.68401 | 12798 ft | 381 kts | 263° |
| 2026-04-24 02:56 | 19.75192 | -98.71089 | 12451 ft | 373 kts | 248° |
| 2026-04-24 02:56 | 19.73867 | -98.73409 | 12113 ft | 366 kts | 230° |
| 2026-04-24 02:56 | 19.72044 | -98.75244 | 11884 ft | 355 kts | 224° |
| 2026-04-24 02:57 | 19.70252 | -98.76955 | 11874 ft | 339 kts | 217° |
| 2026-04-24 02:57 | 19.68209 | -98.78072 | 11744 ft | 325 kts | 199° |
| 2026-04-24 02:57 | 19.66024 | -98.78510 | 11483 ft | 313 kts | 187° |
| 2026-04-24 02:57 | 19.63912 | -98.78776 | 11235 ft | 299 kts | 187° |
| 2026-04-24 02:58 | 19.61932 | -98.79230 | 10978 ft | 285 kts | 199° |
| 2026-04-24 02:58 | 19.60162 | -98.80061 | 10741 ft | 273 kts | 210° |
| 2026-04-24 02:58 | 19.58645 | -98.81190 | 10503 ft | 262 kts | 221° |
| 2026-04-24 02:58 | 19.57397 | -98.82544 | 10278 ft | 252 kts | 231° |
| 2026-04-24 02:59 | 19.56433 | -98.84018 | 10043 ft | 243 kts | 238° |
| 2026-04-24 02:59 | 19.55592 | -98.85528 | 9897 ft | 233 kts | 239° |
| 2026-04-24 02:59 | 19.54778 | -98.87003 | 9902 ft | 231 kts | 239° |
| 2026-04-24 02:59 | 19.53964 | -98.88463 | 9909 ft | 229 kts | 239° |
| 2026-04-24 03:00 | 19.53150 | -98.89919 | 9928 ft | 229 kts | 239° |
| 2026-04-24 03:00 | 19.52338 | -98.91371 | 9939 ft | 228 kts | 239° |
| 2026-04-24 03:00 | 19.51558 | -98.92768 | 9890 ft | 213 kts | 239° |
| 2026-04-24 03:00 | 19.50815 | -98.94096 | 9696 ft | 206 kts | 239° |
| 2026-04-24 03:01 | 19.50101 | -98.95372 | 9538 ft | 197 kts | 238° |
| 2026-04-24 03:01 | 19.49417 | -98.96595 | 9392 ft | 189 kts | 237° |
| 2026-04-24 03:01 | 19.48773 | -98.97746 | 9228 ft | 179 kts | 238° |
| 2026-04-24 03:01 | 19.48442 | -98.98339 | 9119 ft | 171 kts | 239° |
| 2026-04-24 03:02 | 19.47872 | -98.99353 | 8890 ft | 166 kts | 237° |
| 2026-04-24 03:02 | 19.47285 | -99.00403 | 8610 ft | 165 kts | 238° |
| 2026-04-24 03:02 | 19.46702 | -99.01444 | 8312 ft | 163 kts | 238° |
| 2026-04-24 03:02 | 19.46127 | -99.02469 | 8035 ft | 160 kts | 239° |
| 2026-04-24 03:03 | 19.45575 | -99.03479 | 7804 ft | 158 kts | 240° |
| 2026-04-24 03:03 | 19.45017 | -99.04473 | 7568 ft | 154 kts | 240° |
| 2026-04-24 03:03 | 19.44466 | -99.05443 | 7324 ft | 154 kts | 240° |